sensor_id;sensor_type;location;lat;lon;timestamp;pressure;altitude;pressure_sealevel;temperature;humidity
39789;BME280;25478;42.626;23.320;2023-02-16T00:00:25;94257.50;;;-2.09;87.32
39789;BME280;25478;42.626;23.320;2023-02-16T00:02:51;94252.88;;;-2.12;87.67
39789;BME280;25478;42.626;23.320;2023-02-16T00:05:29;94256.47;;;-2.13;87.92
39789;BME280;25478;42.626;23.320;2023-02-16T00:07:56;94251.38;;;-2.18;87.84
39789;BME280;25478;42.626;23.320;2023-02-16T00:10:22;94253.66;;;-2.16;88.33
39789;BME280;25478;42.626;23.320;2023-02-16T00:12:48;94260.09;;;-2.19;87.52
39789;BME280;25478;42.626;23.320;2023-02-16T00:15:33;94259.09;;;-2.23;88.10
39789;BME280;25478;42.626;23.320;2023-02-16T00:17:59;94257.31;;;-2.22;87.90
39789;BME280;25478;42.626;23.320;2023-02-16T00:20:27;94259.38;;;-2.24;88.36
39789;BME280;25478;42.626;23.320;2023-02-16T00:22:54;94251.16;;;-2.27;87.85
39789;BME280;25478;42.626;23.320;2023-02-16T00:25:20;94244.41;;;-2.28;88.04
39789;BME280;25478;42.626;23.320;2023-02-16T00:27:45;94258.34;;;-2.29;88.49
39789;BME280;25478;42.626;23.320;2023-02-16T00:30:15;94250.88;;;-2.30;88.59
39789;BME280;25478;42.626;23.320;2023-02-16T00:32:42;94251.91;;;-2.31;88.53
39789;BME280;25478;42.626;23.320;2023-02-16T00:35:20;94252.97;;;-2.32;87.97
39789;BME280;25478;42.626;23.320;2023-02-16T00:37:46;94236.72;;;-2.38;88.37
39789;BME280;25478;42.626;23.320;2023-02-16T00:40:13;94260.19;;;-2.34;87.82
39789;BME280;25478;42.626;23.320;2023-02-16T00:42:40;94247.81;;;-2.37;88.53
39789;BME280;25478;42.626;23.320;2023-02-16T00:45:14;94250.38;;;-2.37;88.81
39789;BME280;25478;42.626;23.320;2023-02-16T00:47:43;94253.25;;;-2.39;88.05
39789;BME280;25478;42.626;23.320;2023-02-16T00:50:21;94249.88;;;-2.39;88.28
39789;BME280;25478;42.626;23.320;2023-02-16T00:52:47;94250.94;;;-2.40;88.87
39789;BME280;25478;42.626;23.320;2023-02-16T00:57:43;94241.91;;;-2.43;88.25
39789;BME280;25478;42.626;23.320;2023-02-16T01:00:32;94252.75;;;-2.41;88.36
39789;BME280;25478;42.626;23.320;2023-02-16T01:03:00;94250.16;;;-2.41;88.59
39789;BME280;25478;42.626;23.320;2023-02-16T01:05:27;94246.81;;;-2.41;88.85
39789;BME280;25478;42.626;23.320;2023-02-16T01:07:53;94237.53;;;-2.42;88.56
39789;BME280;25478;42.626;23.320;2023-02-16T01:10:37;94239.84;;;-2.46;88.62
39789;BME280;25478;42.626;23.320;2023-02-16T01:13:22;94237.78;;;-2.44;88.48
39789;BME280;25478;42.626;23.320;2023-02-16T01:15:48;94237.00;;;-2.44;88.65
39789;BME280;25478;42.626;23.320;2023-02-16T01:18:17;94234.44;;;-2.44;88.57
39789;BME280;25478;42.626;23.320;2023-02-16T01:20:43;94232.13;;;-2.46;89.11
39789;BME280;25478;42.626;23.320;2023-02-16T01:23:09;94237.53;;;-2.47;89.10
39789;BME280;25478;42.626;23.320;2023-02-16T01:25:35;94228.03;;;-2.52;88.62
39789;BME280;25478;42.626;23.320;2023-02-16T01:28:01;94227.00;;;-2.51;88.39
39789;BME280;25478;42.626;23.320;2023-02-16T01:30:26;94219.50;;;-2.52;89.15
39789;BME280;25478;42.626;23.320;2023-02-16T01:32:52;94216.16;;;-2.53;88.68
39789;BME280;25478;42.626;23.320;2023-02-16T01:35:25;94212.31;;;-2.56;89.23
39789;BME280;25478;42.626;23.320;2023-02-16T01:37:52;94217.72;;;-2.57;89.34
39789;BME280;25478;42.626;23.320;2023-02-16T01:40:25;94212.56;;;-2.57;88.38
39789;BME280;25478;42.626;23.320;2023-02-16T01:43:18;94213.09;;;-2.60;88.58
39789;BME280;25478;42.626;23.320;2023-02-16T01:45:50;94192.81;;;-2.77;88.80
39789;BME280;25478;42.626;23.320;2023-02-16T01:48:28;94206.16;;;-2.65;89.27
39789;BME280;25478;42.626;23.320;2023-02-16T01:51:06;94202.31;;;-2.67;88.72
39789;BME280;25478;42.626;23.320;2023-02-16T01:53:52;94186.88;;;-2.83;89.21
39789;BME280;25478;42.626;23.320;2023-02-16T01:56:33;94198.69;;;-2.71;89.39
39789;BME280;25478;42.626;23.320;2023-02-16T01:59:04;94205.66;;;-2.72;89.22
39789;BME280;25478;42.626;23.320;2023-02-16T02:01:39;94201.03;;;-2.75;89.12
39789;BME280;25478;42.626;23.320;2023-02-16T02:04:13;94191.00;;;-2.81;88.95
39789;BME280;25478;42.626;23.320;2023-02-16T02:06:58;94195.38;;;-2.77;88.95
39789;BME280;25478;42.626;23.320;2023-02-16T02:09:37;94195.38;;;-2.77;89.50
39789;BME280;25478;42.626;23.320;2023-02-16T02:14:46;94203.13;;;-2.82;89.00
39789;BME280;25478;42.626;23.320;2023-02-16T02:17:17;94213.41;;;-2.82;89.61
39789;BME280;25478;42.626;23.320;2023-02-16T02:30:46;94206.53;;;-3.02;89.73
39789;BME280;25478;42.626;23.320;2023-02-16T02:38:27;94186.66;;;-2.96;89.07
39789;BME280;25478;42.626;23.320;2023-02-16T02:43:51;94194.38;;;-2.96;89.63
39789;BME280;25478;42.626;23.320;2023-02-16T02:46:24;94193.88;;;-2.98;90.07
39789;BME280;25478;42.626;23.320;2023-02-16T02:48:51;94172.81;;;-3.10;89.49
39789;BME280;25478;42.626;23.320;2023-02-16T02:51:17;94175.88;;;-3.14;90.12
39789;BME280;25478;42.626;23.320;2023-02-16T02:54:13;94192.34;;;-2.99;89.77
39789;BME280;25478;42.626;23.320;2023-02-16T03:00:09;94196.47;;;-3.03;89.97
39789;BME280;25478;42.626;23.320;2023-02-16T03:03:03;94198.25;;;-3.04;89.92
39789;BME280;25478;42.626;23.320;2023-02-16T03:05:32;94187.22;;;-3.09;89.79
39789;BME280;25478;42.626;23.320;2023-02-16T03:08:04;94195.97;;;-3.10;89.40
39789;BME280;25478;42.626;23.320;2023-02-16T03:10:59;94206.03;;;-3.09;89.76
39789;BME280;25478;42.626;23.320;2023-02-16T03:13:46;94207.28;;;-3.12;89.92
39789;BME280;25478;42.626;23.320;2023-02-16T03:16:22;94182.59;;;-3.18;89.66
39789;BME280;25478;42.626;23.320;2023-02-16T03:18:49;94208.84;;;-3.10;89.78
39789;BME280;25478;42.626;23.320;2023-02-16T03:21:35;94202.94;;;-3.11;89.84
39789;BME280;25478;42.626;23.320;2023-02-16T03:24:27;94197.78;;;-3.11;90.43
39789;BME280;25478;42.626;23.320;2023-02-16T03:27:20;94192.88;;;-3.13;90.56
39789;BME280;25478;42.626;23.320;2023-02-16T03:30:06;94196.22;;;-3.12;90.18
39789;BME280;25478;42.626;23.320;2023-02-16T03:32:33;94187.22;;;-3.09;90.09
39789;BME280;25478;42.626;23.320;2023-02-16T03:34:58;94190.56;;;-3.09;90.01
39789;BME280;25478;42.626;23.320;2023-02-16T03:37:24;94171.03;;;-3.25;90.32
39789;BME280;25478;42.626;23.320;2023-02-16T03:39:49;94184.91;;;-3.11;90.22
39789;BME280;25478;42.626;23.320;2023-02-16T03:42:33;94185.69;;;-3.10;90.23
39789;BME280;25478;42.626;23.320;2023-02-16T03:44:59;94192.38;;;-3.09;90.59
39789;BME280;25478;42.626;23.320;2023-02-16T03:47:24;94189.25;;;-3.12;90.24
39789;BME280;25478;42.626;23.320;2023-02-16T03:49:50;94192.88;;;-3.13;90.44
39789;BME280;25478;42.626;23.320;2023-02-16T03:52:15;94191.34;;;-3.14;90.31
39789;BME280;25478;42.626;23.320;2023-02-16T03:54:41;94193.66;;;-3.12;90.56
39789;BME280;25478;42.626;23.320;2023-02-16T03:57:06;94197.25;;;-3.13;90.44
39789;BME280;25478;42.626;23.320;2023-02-16T03:59:32;94193.66;;;-3.12;90.26
39789;BME280;25478;42.626;23.320;2023-02-16T04:01:57;94191.84;;;-3.12;90.28
39789;BME280;25478;42.626;23.320;2023-02-16T04:04:23;94182.56;;;-3.13;90.44
39789;BME280;25478;42.626;23.320;2023-02-16T04:06:49;94190.28;;;-3.13;91.06
39789;BME280;25478;42.626;23.320;2023-02-16T04:09:14;94180.00;;;-3.13;90.74
39789;BME280;25478;42.626;23.320;2023-02-16T04:11:40;94180.00;;;-3.13;90.67
39789;BME280;25478;42.626;23.320;2023-02-16T04:14:23;94176.66;;;-3.13;90.47
39789;BME280;25478;42.626;23.320;2023-02-16T04:16:49;94174.84;;;-3.13;91.10
39789;BME280;25478;42.626;23.320;2023-02-16T04:19:14;94176.66;;;-3.13;90.75
39789;BME280;25478;42.626;23.320;2023-02-16T04:21:40;94169.69;;;-3.13;91.15
39789;BME280;25478;42.626;23.320;2023-02-16T04:24:07;94168.91;;;-3.13;90.54
39789;BME280;25478;42.626;23.320;2023-02-16T04:26:33;94176.38;;;-3.12;91.16
39789;BME280;25478;42.626;23.320;2023-02-16T04:28:58;94163.78;;;-3.13;91.06
39789;BME280;25478;42.626;23.320;2023-02-16T04:31:24;94164.03;;;-3.15;91.10
39789;BME280;25478;42.626;23.320;2023-02-16T04:33:49;94144.50;;;-3.26;91.17
39789;BME280;25478;42.626;23.320;2023-02-16T04:36:15;94175.63;;;-3.12;90.91
39789;BME280;25478;42.626;23.320;2023-02-16T04:38:41;94173.56;;;-3.10;91.41
39789;BME280;25478;42.626;23.320;2023-02-16T04:41:06;94172.25;;;-3.07;91.59
39789;BME280;25478;42.626;23.320;2023-02-16T04:43:32;94173.03;;;-3.07;91.38
39789;BME280;25478;42.626;23.320;2023-02-16T04:45:58;94168.91;;;-3.08;91.23
39789;BME280;25478;42.626;23.320;2023-02-16T04:48:23;94183.84;;;-3.05;90.97
39789;BME280;25478;42.626;23.320;2023-02-16T04:50:49;94171.72;;;-3.04;91.26
39789;BME280;25478;42.626;23.320;2023-02-16T04:53:15;94167.16;;;-3.18;90.92
39789;BME280;25478;42.626;23.320;2023-02-16T04:55:48;94186.19;;;-3.08;91.21
39789;BME280;25478;42.626;23.320;2023-02-16T04:58:14;94183.09;;;-3.10;91.01
39789;BME280;25478;42.626;23.320;2023-02-16T05:00:40;94185.41;;;-3.14;90.95
39789;BME280;25478;42.626;23.320;2023-02-16T05:03:06;94187.22;;;-3.15;91.44
39789;BME280;25478;42.626;23.320;2023-02-16T05:05:31;94186.72;;;-3.17;91.69
39789;BME280;25478;42.626;23.320;2023-02-16T05:08:01;94193.66;;;-3.17;91.41
39789;BME280;25478;42.626;23.320;2023-02-16T05:10:27;94193.16;;;-3.19;91.50
39789;BME280;25478;42.626;23.320;2023-02-16T05:12:52;94197.53;;;-3.20;91.31
39789;BME280;25478;42.626;23.320;2023-02-16T05:15:36;94203.19;;;-3.23;91.28
39789;BME280;25478;42.626;23.320;2023-02-16T05:18:02;94193.66;;;-3.22;91.42
39789;BME280;25478;42.626;23.320;2023-02-16T05:20:27;94203.19;;;-3.23;91.74
39789;BME280;25478;42.626;23.320;2023-02-16T05:23:12;94196.78;;;-3.25;91.61
39789;BME280;25478;42.626;23.320;2023-02-16T05:25:37;94199.34;;;-3.25;91.28
39789;BME280;25478;42.626;23.320;2023-02-16T05:28:03;94195.50;;;-3.28;91.57
39789;BME280;25478;42.626;23.320;2023-02-16T05:30:29;94190.34;;;-3.28;91.25
39789;BME280;25478;42.626;23.320;2023-02-16T05:32:55;94198.31;;;-3.29;91.58
39789;BME280;25478;42.626;23.320;2023-02-16T05:35:20;94203.47;;;-3.29;92.06
39789;BME280;25478;42.626;23.320;2023-02-16T05:37:46;94207.34;;;-3.32;91.45
39789;BME280;25478;42.626;23.320;2023-02-16T05:40:11;94201.16;;;-3.26;91.93
39789;BME280;25478;42.626;23.320;2023-02-16T05:42:37;94216.06;;;-3.23;91.61
39789;BME280;25478;42.626;23.320;2023-02-16T05:45:03;94207.31;;;-3.22;92.23
39789;BME280;25478;42.626;23.320;2023-02-16T05:47:28;94169.75;;;-3.43;91.98
39789;BME280;25478;42.626;23.320;2023-02-16T05:49:54;94208.84;;;-3.16;92.31
39789;BME280;25478;42.626;23.320;2023-02-16T05:52:19;94212.97;;;-3.09;91.85
39789;BME280;25478;42.626;23.320;2023-02-16T05:54:46;94208.84;;;-3.05;92.29
39789;BME280;25478;42.626;23.320;2023-02-16T05:57:11;94207.03;;;-3.00;91.86
39789;BME280;25478;42.626;23.320;2023-02-16T05:59:37;94208.56;;;-2.94;91.33
39789;BME280;25478;42.626;23.320;2023-02-16T06:02:02;94205.19;;;-2.84;92.02
39789;BME280;25478;42.626;23.320;2023-02-16T06:04:28;94217.28;;;-2.74;91.78
39789;BME280;25478;42.626;23.320;2023-02-16T06:06:54;94215.69;;;-2.65;92.03
39789;BME280;25478;42.626;23.320;2023-02-16T06:09:19;94215.91;;;-2.57;91.20
39789;BME280;25478;42.626;23.320;2023-02-16T06:11:45;94216.16;;;-2.48;91.20
39789;BME280;25478;42.626;23.320;2023-02-16T06:14:19;94216.38;;;-2.39;90.87
39789;BME280;25478;42.626;23.320;2023-02-16T06:16:47;94226.63;;;-2.29;91.17
39789;BME280;25478;42.626;23.320;2023-02-16T06:19:14;94226.56;;;-2.19;90.64
39789;BME280;25478;42.626;23.320;2023-02-16T06:21:41;94235.31;;;-2.10;90.92
39789;BME280;25478;42.626;23.320;2023-02-16T06:24:08;94235.50;;;-1.96;90.96
39789;BME280;25478;42.626;23.320;2023-02-16T06:26:34;94225.34;;;-1.82;90.52
39789;BME280;25478;42.626;23.320;2023-02-16T06:29:00;94231.97;;;-1.66;90.81
39789;BME280;25478;42.626;23.320;2023-02-16T06:31:26;94236.75;;;-1.49;90.13
39789;BME280;25478;42.626;23.320;2023-02-16T06:33:52;94243.28;;;-1.28;90.41
39789;BME280;25478;42.626;23.320;2023-02-16T06:36:18;94242.41;;;-1.13;89.61
39789;BME280;25478;42.626;23.320;2023-02-16T06:38:45;94244.78;;;-0.93;90.02
39789;BME280;25478;42.626;23.320;2023-02-16T06:41:11;94227.91;;;-0.85;89.25
39789;BME280;25478;42.626;23.320;2023-02-16T06:43:37;94248.03;;;-0.53;88.79
39789;BME280;25478;42.626;23.320;2023-02-16T06:46:03;94250.72;;;-0.39;88.65
39789;BME280;25478;42.626;23.320;2023-02-16T06:48:28;94248.66;;;-0.18;88.62
39789;BME280;25478;42.626;23.320;2023-02-16T06:50:54;94249.19;;;0.03;87.88
39789;BME280;25478;42.626;23.320;2023-02-16T06:53:20;94254.94;;;0.18;87.29
39789;BME280;25478;42.626;23.320;2023-02-16T06:55:48;94251.09;;;0.35;86.90
39789;BME280;25478;42.626;23.320;2023-02-16T06:58:14;94251.50;;;0.42;86.06
39789;BME280;25478;42.626;23.320;2023-02-16T07:00:39;94249.97;;;0.41;85.96
39789;BME280;25478;42.626;23.320;2023-02-16T07:03:05;94241.41;;;0.40;86.04
39789;BME280;25478;42.626;23.320;2023-02-16T07:05:30;94243.72;;;0.42;86.33
39789;BME280;25478;42.626;23.320;2023-02-16T07:07:56;94254.44;;;0.54;86.04
39789;BME280;25478;42.626;23.320;2023-02-16T07:10:22;94247.00;;;0.66;85.95
39789;BME280;25478;42.626;23.320;2023-02-16T07:12:47;94242.50;;;0.72;85.57
39789;BME280;25478;42.626;23.320;2023-02-16T07:15:13;94224.25;;;0.63;85.17
39789;BME280;25478;42.626;23.320;2023-02-16T07:17:39;94243.88;;;0.83;85.32
39789;BME280;25478;42.626;23.320;2023-02-16T07:20:05;94235.25;;;0.88;84.75
39789;BME280;25478;42.626;23.320;2023-02-16T07:22:31;94230.66;;;0.84;84.61
39789;BME280;25478;42.626;23.320;2023-02-16T07:24:56;94200.56;;;0.70;85.24
39789;BME280;25478;42.626;23.320;2023-02-16T07:27:24;94223.84;;;0.89;85.12
39789;BME280;25478;42.626;23.320;2023-02-16T07:29:49;94216.53;;;0.91;85.08
39789;BME280;25478;42.626;23.320;2023-02-16T07:32:15;94219.47;;;1.03;84.59
39789;BME280;25478;42.626;23.320;2023-02-16T07:34:40;94222.25;;;1.06;83.81
39789;BME280;25478;42.626;23.320;2023-02-16T07:37:06;94223.50;;;1.09;83.97
39789;BME280;25478;42.626;23.320;2023-02-16T07:39:31;94222.66;;;1.13;83.72
39789;BME280;25478;42.626;23.320;2023-02-16T07:41:57;94217.84;;;1.21;84.00
39789;BME280;25478;42.626;23.320;2023-02-16T07:44:24;94231.63;;;1.35;83.71
39789;BME280;25478;42.626;23.320;2023-02-16T07:46:50;94221.53;;;1.47;83.30
39789;BME280;25478;42.626;23.320;2023-02-16T07:49:15;94214.31;;;1.58;82.95
39789;BME280;25478;42.626;23.320;2023-02-16T07:51:41;94223.63;;;1.73;81.84
39789;BME280;25478;42.626;23.320;2023-02-16T07:54:06;94226.22;;;1.73;81.85
39789;BME280;25478;42.626;23.320;2023-02-16T07:56:33;94229.78;;;1.63;81.89
39789;BME280;25478;42.626;23.320;2023-02-16T07:59:00;94231.63;;;1.62;81.88
39789;BME280;25478;42.626;23.320;2023-02-16T08:01:26;94238.63;;;1.62;82.31
39789;BME280;25478;42.626;23.320;2023-02-16T08:03:52;94232.69;;;1.61;82.05
39789;BME280;25478;42.626;23.320;2023-02-16T08:06:19;94239.69;;;1.61;82.20
39789;BME280;25478;42.626;23.320;2023-02-16T08:08:45;94236.50;;;1.64;81.90
39789;BME280;25478;42.626;23.320;2023-02-16T08:11:17;94235.44;;;1.65;81.67
39789;BME280;25478;42.626;23.320;2023-02-16T08:13:43;94239.50;;;1.71;82.15
39789;BME280;25478;42.626;23.320;2023-02-16T08:16:13;94245.16;;;1.87;81.95
39789;BME280;25478;42.626;23.320;2023-02-16T08:18:39;94217.84;;;1.89;81.71
39789;BME280;25478;42.626;23.320;2023-02-16T08:21:12;94241.66;;;2.19;81.11
39789;BME280;25478;42.626;23.320;2023-02-16T08:23:46;94243.63;;;2.36;80.52
39789;BME280;25478;42.626;23.320;2023-02-16T08:26:13;94248.31;;;2.47;79.82
39789;BME280;25478;42.626;23.320;2023-02-16T08:28:39;94242.03;;;2.48;79.81
39789;BME280;25478;42.626;23.320;2023-02-16T08:31:20;94245.72;;;2.47;79.22
39789;BME280;25478;42.626;23.320;2023-02-16T08:33:48;94254.66;;;2.41;79.30
39789;BME280;25478;42.626;23.320;2023-02-16T08:36:22;94255.94;;;2.44;79.10
39789;BME280;25478;42.626;23.320;2023-02-16T08:38:48;94236.94;;;2.43;79.19
39789;BME280;25478;42.626;23.320;2023-02-16T08:41:18;94250.09;;;2.61;78.47
39789;BME280;25478;42.626;23.320;2023-02-16T08:43:44;94253.19;;;2.63;77.67
39789;BME280;25478;42.626;23.320;2023-02-16T08:46:10;94252.88;;;2.64;78.59
39789;BME280;25478;42.626;23.320;2023-02-16T08:48:36;94247.22;;;2.62;77.85
39789;BME280;25478;42.626;23.320;2023-02-16T08:51:02;94245.44;;;2.71;77.75
39789;BME280;25478;42.626;23.320;2023-02-16T08:53:34;94248.66;;;2.77;77.70
39789;BME280;25478;42.626;23.320;2023-02-16T08:56:02;94230.31;;;2.73;78.18
39789;BME280;25478;42.626;23.320;2023-02-16T08:58:28;94240.81;;;2.91;77.05
39789;BME280;25478;42.626;23.320;2023-02-16T09:00:54;94244.13;;;3.05;77.06
39789;BME280;25478;42.626;23.320;2023-02-16T09:03:20;94239.38;;;3.07;76.39
39789;BME280;25478;42.626;23.320;2023-02-16T09:05:46;94242.19;;;3.19;76.06
39789;BME280;25478;42.626;23.320;2023-02-16T09:08:12;94246.50;;;3.24;75.92
39789;BME280;25478;42.626;23.320;2023-02-16T09:10:39;94243.50;;;3.30;75.34
39789;BME280;25478;42.626;23.320;2023-02-16T09:13:05;94244.13;;;3.36;75.24
39789;BME280;25478;42.626;23.320;2023-02-16T09:15:33;94244.47;;;3.43;74.93
39789;BME280;25478;42.626;23.320;2023-02-16T09:17:59;94237.91;;;3.46;74.58
39789;BME280;25478;42.626;23.320;2023-02-16T09:20:24;94241.53;;;3.45;74.17
39789;BME280;25478;42.626;23.320;2023-02-16T09:22:51;94235.91;;;3.51;74.66
39789;BME280;25478;42.626;23.320;2023-02-16T09:25:17;94238.25;;;3.61;74.32
39789;BME280;25478;42.626;23.320;2023-02-16T09:27:42;94237.38;;;3.75;73.68
39789;BME280;25478;42.626;23.320;2023-02-16T09:30:08;94231.00;;;3.89;73.27
39789;BME280;25478;42.626;23.320;2023-02-16T09:32:34;94218.28;;;3.88;72.92
39789;BME280;25478;42.626;23.320;2023-02-16T09:35:01;94235.91;;;4.00;72.85
39789;BME280;25478;42.626;23.320;2023-02-16T09:37:26;94232.41;;;4.04;72.13
39789;BME280;25478;42.626;23.320;2023-02-16T09:39:52;94221.22;;;4.04;72.36
39789;BME280;25478;42.626;23.320;2023-02-16T09:42:38;94223.53;;;4.14;72.15
39789;BME280;25478;42.626;23.320;2023-02-16T09:45:11;94225.22;;;4.27;71.61
39789;BME280;25478;42.626;23.320;2023-02-16T09:47:46;94222.78;;;4.31;70.93
39789;BME280;25478;42.626;23.320;2023-02-16T09:50:32;94218.66;;;4.30;71.19
39789;BME280;25478;42.626;23.320;2023-02-16T09:53:02;94220.50;;;4.38;70.87
39789;BME280;25478;42.626;23.320;2023-02-16T09:55:40;94198.06;;;4.37;71.25
39789;BME280;25478;42.626;23.320;2023-02-16T09:58:16;94212.66;;;4.55;70.66
39789;BME280;25478;42.626;23.320;2023-02-16T10:08:49;94201.13;;;4.82;69.27
39789;BME280;25478;42.626;23.320;2023-02-16T10:11:26;94195.72;;;4.87;69.27
39789;BME280;25478;42.626;23.320;2023-02-16T10:14:30;94200.81;;;4.92;69.17
39789;BME280;25478;42.626;23.320;2023-02-16T10:19:45;94192.47;;;5.16;67.73
39789;BME280;25478;42.626;23.320;2023-02-16T10:22:15;94176.34;;;5.14;67.88
39789;BME280;25478;42.626;23.320;2023-02-16T10:24:47;94179.69;;;5.23;67.46
39789;BME280;25478;42.626;23.320;2023-02-16T10:27:17;94185.38;;;5.25;67.63
39789;BME280;25478;42.626;23.320;2023-02-16T10:29:45;94182.09;;;5.37;66.75
39789;BME280;25478;42.626;23.320;2023-02-16T10:32:34;94186.34;;;5.50;67.26
39789;BME280;25478;42.626;23.320;2023-02-16T10:35:13;94178.75;;;5.66;66.44
39789;BME280;25478;42.626;23.320;2023-02-16T10:38:03;94182.97;;;5.79;65.62
39789;BME280;25478;42.626;23.320;2023-02-16T10:40:44;94183.84;;;5.92;65.70
39789;BME280;25478;42.626;23.320;2023-02-16T10:46:24;94175.25;;;6.12;64.01
39789;BME280;25478;42.626;23.320;2023-02-16T10:48:54;94166.53;;;6.08;63.79
39789;BME280;25478;42.626;23.320;2023-02-16T10:51:24;94178.91;;;6.20;63.78
39789;BME280;25478;42.626;23.320;2023-02-16T10:53:55;94174.50;;;6.33;62.63
39789;BME280;25478;42.626;23.320;2023-02-16T10:59:23;94159.56;;;6.54;62.24
39789;BME280;25478;42.626;23.320;2023-02-16T11:01:55;94153.28;;;6.67;60.95
39789;BME280;25478;42.626;23.320;2023-02-16T11:04:41;94140.06;;;6.64;60.63
39789;BME280;25478;42.626;23.320;2023-02-16T11:07:10;94152.31;;;6.72;60.99
39789;BME280;25478;42.626;23.320;2023-02-16T11:09:38;94145.28;;;6.85;60.68
39789;BME280;25478;42.626;23.320;2023-02-16T11:17:59;94132.88;;;7.06;59.35
39789;BME280;25478;42.626;23.320;2023-02-16T11:23:13;94135.50;;;7.18;58.94
39789;BME280;25478;42.626;23.320;2023-02-16T11:25:39;94135.19;;;7.20;58.66
39789;BME280;25478;42.626;23.320;2023-02-16T11:28:05;94138.69;;;7.24;58.54
39789;BME280;25478;42.626;23.320;2023-02-16T11:30:34;94127.03;;;7.33;58.27
39789;BME280;25478;42.626;23.320;2023-02-16T11:33:02;94132.16;;;7.42;57.96
39789;BME280;25478;42.626;23.320;2023-02-16T11:35:30;94123.50;;;7.54;57.87
39789;BME280;25478;42.626;23.320;2023-02-16T11:37:57;94121.34;;;7.68;57.46
39789;BME280;25478;42.626;23.320;2023-02-16T11:40:31;94119.00;;;7.79;56.91
39789;BME280;25478;42.626;23.320;2023-02-16T11:42:59;94111.03;;;7.87;56.92
39789;BME280;25478;42.626;23.320;2023-02-16T11:45:32;94112.00;;;7.95;55.81
39789;BME280;25478;42.626;23.320;2023-02-16T11:48:05;94118.53;;;8.01;55.76
39789;BME280;25478;42.626;23.320;2023-02-16T11:50:36;94116.00;;;8.05;55.83
39789;BME280;25478;42.626;23.320;2023-02-16T11:55:48;94115.38;;;8.08;55.03
39789;BME280;25478;42.626;23.320;2023-02-16T12:09:52;94092.00;;;8.31;54.21
39789;BME280;25478;42.626;23.320;2023-02-16T12:12:35;94093.66;;;8.35;54.00
39789;BME280;25478;42.626;23.320;2023-02-16T12:15:17;94082.81;;;8.37;53.80
39789;BME280;25478;42.626;23.320;2023-02-16T12:29:08;94071.19;;;8.66;53.27
39789;BME280;25478;42.626;23.320;2023-02-16T12:37:43;94067.50;;;8.67;52.32
39789;BME280;25478;42.626;23.320;2023-02-16T12:45:23;94054.22;;;8.76;51.98
39789;BME280;25478;42.626;23.320;2023-02-16T12:47:55;94057.31;;;8.81;52.11
39789;BME280;25478;42.626;23.320;2023-02-16T12:50:25;94051.72;;;8.83;51.82
39789;BME280;25478;42.626;23.320;2023-02-16T12:53:04;94048.88;;;8.88;51.58
39789;BME280;25478;42.626;23.320;2023-02-16T12:55:38;94051.25;;;8.93;51.83
39789;BME280;25478;42.626;23.320;2023-02-16T12:58:09;94040.81;;;8.96;51.71
39789;BME280;25478;42.626;23.320;2023-02-16T13:00:44;94039.38;;;8.99;51.25
39789;BME280;25478;42.626;23.320;2023-02-16T13:05:49;94020.09;;;8.91;51.12
39789;BME280;25478;42.626;23.320;2023-02-16T13:08:42;94035.97;;;8.98;50.98
39789;BME280;25478;42.626;23.320;2023-02-16T13:11:10;94035.72;;;9.03;51.28
39789;BME280;25478;42.626;23.320;2023-02-16T13:13:38;94020.66;;;9.00;50.72
39789;BME280;25478;42.626;23.320;2023-02-16T13:16:27;94032.59;;;9.14;51.07
39789;BME280;25478;42.626;23.320;2023-02-16T13:18:59;94025.56;;;9.18;51.31
39789;BME280;25478;42.626;23.320;2023-02-16T13:27:31;94027.34;;;9.14;51.52
39789;BME280;25478;42.626;23.320;2023-02-16T13:36:25;94015.53;;;9.23;50.72
39789;BME280;25478;42.626;23.320;2023-02-16T13:44:48;94011.56;;;9.29;50.35
39789;BME280;25478;42.626;23.320;2023-02-16T13:47:26;93997.84;;;9.20;49.90
39789;BME280;25478;42.626;23.320;2023-02-16T13:50:03;94012.41;;;9.34;50.12
39789;BME280;25478;42.626;23.320;2023-02-16T13:52:36;94016.63;;;9.38;50.15
39789;BME280;25478;42.626;23.320;2023-02-16T13:55:05;94010.72;;;9.25;50.45
39789;BME280;25478;42.626;23.320;2023-02-16T14:00:43;94004.19;;;9.35;49.97
39789;BME280;25478;42.626;23.320;2023-02-16T14:05:51;94010.84;;;9.32;50.41
39789;BME280;25478;42.626;23.320;2023-02-16T14:08:27;93985.59;;;9.09;50.57
39789;BME280;25478;42.626;23.320;2023-02-16T14:10:57;94004.88;;;9.16;50.30
39789;BME280;25478;42.626;23.320;2023-02-16T14:16:25;94013.38;;;8.94;50.84
39789;BME280;25478;42.626;23.320;2023-02-16T14:21:41;94005.34;;;8.71;50.80
39789;BME280;25478;42.626;23.320;2023-02-16T14:26:54;94003.81;;;8.26;51.25
39789;BME280;25478;42.626;23.320;2023-02-16T14:29:43;93999.69;;;7.97;51.81
39789;BME280;25478;42.626;23.320;2023-02-16T14:32:28;94000.88;;;7.72;52.32
39789;BME280;25478;42.626;23.320;2023-02-16T14:35:03;93996.44;;;7.48;52.73
39789;BME280;25478;42.626;23.320;2023-02-16T14:43:03;94006.22;;;6.86;53.69
39789;BME280;25478;42.626;23.320;2023-02-16T14:45:44;94000.44;;;6.68;53.58
39789;BME280;25478;42.626;23.320;2023-02-16T14:57:15;94001.28;;;6.03;55.42
39789;BME280;25478;42.626;23.320;2023-02-16T14:59:58;94001.25;;;5.90;55.82
39789;BME280;25478;42.626;23.320;2023-02-16T15:02:38;93990.38;;;5.80;55.94
39789;BME280;25478;42.626;23.320;2023-02-16T15:05:19;93989.91;;;5.65;55.94
39789;BME280;25478;42.626;23.320;2023-02-16T15:07:50;93996.72;;;5.58;56.40
39789;BME280;25478;42.626;23.320;2023-02-16T15:10:22;93993.09;;;5.50;57.14
39789;BME280;25478;42.626;23.320;2023-02-16T15:12:51;93995.00;;;5.41;56.73
39789;BME280;25478;42.626;23.320;2023-02-16T15:15:30;93989.50;;;5.34;56.88
39789;BME280;25478;42.626;23.320;2023-02-16T15:18:00;93997.41;;;5.25;57.73
39789;BME280;25478;42.626;23.320;2023-02-16T15:20:32;93992.34;;;5.20;58.19
39789;BME280;25478;42.626;23.320;2023-02-16T15:25:30;93993.22;;;5.03;58.63
39789;BME280;25478;42.626;23.320;2023-02-16T15:28:02;93999.41;;;4.99;59.27
39789;BME280;25478;42.626;23.320;2023-02-16T15:30:39;93995.00;;;4.91;59.96
39789;BME280;25478;42.626;23.320;2023-02-16T15:33:11;93995.94;;;4.86;59.90